createdAt,value
2019-05-02T00:01:39.806Z,41.13
2019-05-02T00:04:06.987Z,36.37
2019-05-02T00:06:37.973Z,34.03
2019-05-02T00:09:09.169Z,35.60
2019-05-02T00:11:36.350Z,35.13
2019-05-02T00:14:05.459Z,38.60
2019-05-02T00:16:32.766Z,36.43
2019-05-02T00:18:59.920Z,70.10
2019-05-02T00:21:27.737Z,35.10
2019-05-02T00:23:59.183Z,36.17
2019-05-02T00:26:24.841Z,44.27
2019-05-02T00:28:52.917Z,37.47
2019-05-02T00:31:20.927Z,34.53
2019-05-02T00:33:48.152Z,35.07
2019-05-02T00:36:15.362Z,31.27
2019-05-02T00:38:42.551Z,36.00
2019-05-02T00:41:09.696Z,39.30
2019-05-02T00:43:36.915Z,33.37
2019-05-02T00:46:04.117Z,37.30
2019-05-02T00:48:46.222Z,38.77
2019-05-02T00:51:13.534Z,32.00
2019-05-02T00:53:44.456Z,33.23
2019-05-02T00:56:10.381Z,35.67
2019-05-02T00:58:37.691Z,34.13
2019-05-02T01:01:33.037Z,34.03
2019-05-02T01:04:04.533Z,36.00
2019-05-02T01:06:31.723Z,36.53
2019-05-02T01:08:58.878Z,41.83
2019-05-02T01:11:28.371Z,37.43
2019-05-02T01:13:55.663Z,39.03
2019-05-02T01:16:24.340Z,41.13
2019-05-02T01:18:51.558Z,36.00
2019-05-02T01:21:18.745Z,35.93
2019-05-02T01:23:45.933Z,43.93
2019-05-02T01:26:13.045Z,37.37
2019-05-02T01:28:55.742Z,36.80
2019-05-02T01:31:37.632Z,39.63
2019-05-02T01:34:17.881Z,35.80
2019-05-02T01:36:52.711Z,36.90
2019-05-02T01:39:19.881Z,42.93
2019-05-02T01:41:46.939Z,42.97
2019-05-02T01:44:14.159Z,40.47
2019-05-02T01:46:41.330Z,46.43
2019-05-02T01:49:09.346Z,42.57
2019-05-02T01:51:37.097Z,38.30
2019-05-02T01:54:10.049Z,38.93
2019-05-02T01:56:35.067Z,38.70
2019-05-02T01:59:02.395Z,35.07
2019-05-02T02:01:29.478Z,30.80
2019-05-02T02:03:56.693Z,38.43
2019-05-02T02:06:23.925Z,31.93
2019-05-02T02:08:51.155Z,37.30
2019-05-02T02:11:18.662Z,36.33
2019-05-02T02:13:45.859Z,36.73
2019-05-02T02:16:13.369Z,36.43
2019-05-02T02:18:50.166Z,43.60
2019-05-02T02:21:36.977Z,32.80
2019-05-02T02:24:08.224Z,35.10
2019-05-02T02:26:35.447Z,43.67
2019-05-02T02:29:03.123Z,37.40
2019-05-02T02:31:31.662Z,35.30
2019-05-02T02:33:58.762Z,40.73
2019-05-02T02:36:31.799Z,41.00
2019-05-02T02:38:55.223Z,38.90
2019-05-02T02:41:22.380Z,39.80
2019-05-02T02:44:12.199Z,42.50
2019-05-02T02:46:41.788Z,41.13
2019-05-02T02:49:14.222Z,39.83
2019-05-02T02:51:38.171Z,42.23
2019-05-02T02:54:05.766Z,39.30
2019-05-02T02:56:34.386Z,39.53
2019-05-02T02:59:02.298Z,43.80
2019-05-02T03:01:31.320Z,48.23
2019-05-02T03:04:01.937Z,41.87
2019-05-02T03:06:27.684Z,49.77
2019-05-02T03:08:54.964Z,48.57
2019-05-02T03:11:25.511Z,52.37
2019-05-02T03:14:06.675Z,47.93
2019-05-02T03:16:30.262Z,46.63
2019-05-02T03:18:57.430Z,55.20
2019-05-02T03:21:24.694Z,62.17
2019-05-02T03:24:02.265Z,56.93
2019-05-02T03:26:20.888Z,49.60
2019-05-02T03:28:57.291Z,51.47
2019-05-02T03:31:29.830Z,53.07
2019-05-02T03:33:55.115Z,59.07
2019-05-02T03:36:27.999Z,52.43
2019-05-02T03:38:44.971Z,66.50
2019-05-02T03:41:13.649Z,51.00
2019-05-02T03:43:42.097Z,62.77
2019-05-02T03:46:13.454Z,49.30
2019-05-02T03:48:38.343Z,56.67
2019-05-02T03:51:19.669Z,52.10
2019-05-02T03:53:36.424Z,53.67
2019-05-02T03:56:10.570Z,58.93
2019-05-02T03:58:32.816Z,60.07
2019-05-02T04:01:01.625Z,54.23
2019-05-02T04:03:34.139Z,52.07
2019-05-02T04:05:58.762Z,55.80
2019-05-02T04:08:26.327Z,55.80
2019-05-02T04:11:23.467Z,61.07
2019-05-02T04:13:52.209Z,53.17
2019-05-02T04:16:19.611Z,62.10
2019-05-02T04:18:54.626Z,63.00
2019-05-02T04:21:22.178Z,62.90
2019-05-02T04:23:45.826Z,65.17
2019-05-02T04:26:15.429Z,61.97
2019-05-02T04:28:45.685Z,46.37
2019-05-02T04:31:12.497Z,51.73
2019-05-02T04:33:39.807Z,49.97
2019-05-02T04:36:14.151Z,49.67
2019-05-02T04:38:44.269Z,46.20
2019-05-02T04:41:05.240Z,53.80
2019-05-02T04:43:32.401Z,50.93
2019-05-02T04:46:00.318Z,43.50
2019-05-02T04:48:28.487Z,47.33
2019-05-02T04:51:02.010Z,55.07
2019-05-02T04:53:25.809Z,60.87
2019-05-02T04:56:01.734Z,46.60
2019-05-02T04:58:27.503Z,45.70
2019-05-02T05:00:58.109Z,51.03
2019-05-02T05:03:21.363Z,52.70
2019-05-02T05:05:48.425Z,43.27
2019-05-02T05:08:17.556Z,54.13
2019-05-02T05:10:45.159Z,48.13
2019-05-02T05:13:19.437Z,53.93
2019-05-02T05:15:48.918Z,48.47
2019-05-02T05:18:14.482Z,47.70
2019-05-02T05:20:40.538Z,49.87
2019-05-02T05:23:08.309Z,55.13
2019-05-02T05:25:40.852Z,44.73
2019-05-02T05:28:09.076Z,50.70
2019-05-02T05:30:44.707Z,48.60
2019-05-02T05:33:09.913Z,52.10
2019-05-02T05:35:35.337Z,46.83
2019-05-02T05:38:02.516Z,56.97
2019-05-02T05:40:32.083Z,67.13
2019-05-02T05:43:02.115Z,65.30
2019-05-02T05:45:29.111Z,61.80
2019-05-02T05:48:00.958Z,74.73
2019-05-02T05:50:27.566Z,66.77
2019-05-02T05:52:55.048Z,84.73
2019-05-02T05:55:24.317Z,68.30
2019-05-02T05:57:59.537Z,73.67
2019-05-02T06:00:23.132Z,71.93
2019-05-02T06:02:56.099Z,74.53
2019-05-02T06:05:19.909Z,71.23
2019-05-02T06:07:47.472Z,74.67
2019-05-02T06:10:14.809Z,74.53
2019-05-02T06:12:41.989Z,75.87
2019-05-02T06:15:09.529Z,121.03
2019-05-02T06:17:36.758Z,81.93
2019-05-02T06:20:04.494Z,81.17
2019-05-02T06:22:31.989Z,77.73
2019-05-02T06:25:08.418Z,78.53
2019-05-02T06:27:33.439Z,78.97
2019-05-02T06:30:00.983Z,79.50
2019-05-02T06:32:28.292Z,96.67
2019-05-02T06:34:55.516Z,75.50
2019-05-02T06:37:22.712Z,77.80
2019-05-02T06:39:49.975Z,73.30
2019-05-02T06:42:17.151Z,73.90
2019-05-02T06:44:44.543Z,66.17
2019-05-02T06:47:11.743Z,86.50
2019-05-02T06:49:38.820Z,62.00
2019-05-02T06:52:06.011Z,68.23
2019-05-02T06:54:33.253Z,66.87
2019-05-02T06:57:00.438Z,78.57
2019-05-02T06:59:27.657Z,71.10
2019-05-02T07:01:57.450Z,67.27
2019-05-02T07:04:25.071Z,62.80
2019-05-02T07:06:58.866Z,69.03
2019-05-02T07:09:21.768Z,55.77
2019-05-02T07:11:57.003Z,51.07
2019-05-02T07:14:23.264Z,47.53
2019-05-02T07:17:05.701Z,49.70
2019-05-02T07:19:37.996Z,57.67
2019-05-02T07:22:05.235Z,56.23
2019-05-02T07:24:32.733Z,59.70
2019-05-02T07:27:02.297Z,58.93
2019-05-02T07:29:29.134Z,58.10
2019-05-02T07:31:56.317Z,63.53
2019-05-02T07:34:23.795Z,59.30
2019-05-02T07:36:50.891Z,60.00
2019-05-02T07:39:18.088Z,61.30
2019-05-02T07:41:45.203Z,67.20
2019-05-02T07:44:12.577Z,56.93
2019-05-02T07:46:51.159Z,56.27
2019-05-02T07:49:08.875Z,58.87
2019-05-02T07:51:36.110Z,52.77
2019-05-02T07:54:03.392Z,53.43
2019-05-02T07:56:30.847Z,51.37
2019-05-02T07:58:58.100Z,50.40
2019-05-02T08:01:25.565Z,51.30
2019-05-02T08:03:52.739Z,51.30
2019-05-02T08:06:20.010Z,47.47
2019-05-02T08:08:47.226Z,71.27
2019-05-02T08:11:14.415Z,84.10
2019-05-02T08:13:41.597Z,44.20
2019-05-02T08:16:08.803Z,42.90
2019-05-02T08:18:36.285Z,44.20
2019-05-02T08:21:03.758Z,43.20
2019-05-02T08:23:30.804Z,64.53
2019-05-02T08:25:58.291Z,41.80
2019-05-02T08:28:34.525Z,40.67
2019-05-02T08:31:01.697Z,40.23
2019-05-02T08:33:34.386Z,46.42
2019-05-02T08:35:57.979Z,43.85
2019-05-02T08:38:25.159Z,41.30
2019-05-02T08:40:52.349Z,41.63
2019-05-02T08:43:19.737Z,39.67
2019-05-02T08:45:46.912Z,41.75
2019-05-02T08:48:13.958Z,37.90
2019-05-02T08:50:41.045Z,36.73
2019-05-02T08:53:08.213Z,36.75
2019-05-02T08:55:35.517Z,36.20
2019-05-02T08:58:06.584Z,32.73
2019-05-02T09:00:37.327Z,36.70
2019-05-02T09:03:02.622Z,36.63
2019-05-02T09:05:30.320Z,36.28
2019-05-02T09:07:57.494Z,37.73
2019-05-02T09:10:24.604Z,36.40
2019-05-02T09:12:52.220Z,36.90
2019-05-02T09:15:19.350Z,37.38
2019-05-02T09:17:53.076Z,38.58
2019-05-02T09:20:20.368Z,38.55
2019-05-02T09:22:46.629Z,39.73
2019-05-02T09:25:14.598Z,40.40
2019-05-02T09:27:42.077Z,39.63
2019-05-02T09:30:11.906Z,42.38
2019-05-02T09:32:38.919Z,43.20
2019-05-02T09:35:06.414Z,40.73
2019-05-02T09:37:33.578Z,51.17
2019-05-02T09:40:02.203Z,39.80
2019-05-02T09:42:29.611Z,41.30
2019-05-02T09:44:57.120Z,43.17
2019-05-02T09:47:27.263Z,82.50
2019-05-02T09:50:29.679Z,55.50
2019-05-02T09:52:52.484Z,46.30
2019-05-02T09:55:19.911Z,52.50
2019-05-02T09:57:48.226Z,55.80
2019-05-02T10:00:36.365Z,55.33
2019-05-02T10:03:03.582Z,64.53
2019-05-02T10:05:32.192Z,65.80
2019-05-02T10:08:03.163Z,61.70
2019-05-02T10:10:29.325Z,51.80
2019-05-02T10:12:56.501Z,58.83
2019-05-02T10:15:23.691Z,60.07
2019-05-02T10:17:51.940Z,65.77
2019-05-02T10:20:23.487Z,63.63
2019-05-02T10:22:48.711Z,61.13
2019-05-02T10:25:15.903Z,63.40
2019-05-02T10:27:47.526Z,66.33
2019-05-02T10:30:15.872Z,60.60
2019-05-02T10:32:47.191Z,65.07
2019-05-02T10:35:16.041Z,64.70
2019-05-02T10:37:43.275Z,68.57
2019-05-02T10:40:15.456Z,57.57
2019-05-02T10:42:41.921Z,53.30
2019-05-02T10:45:12.982Z,57.23
2019-05-02T10:47:39.763Z,64.20
2019-05-02T10:50:17.346Z,53.80
2019-05-02T10:52:45.123Z,52.00
2019-05-02T10:55:12.925Z,59.37
2019-05-02T10:57:42.016Z,46.97
2019-05-02T11:00:12.781Z,57.83
2019-05-02T11:02:52.476Z,54.20
2019-05-02T11:05:22.511Z,59.33
2019-05-02T11:07:52.166Z,52.97
2019-05-02T11:10:19.009Z,59.43
2019-05-02T11:13:09.098Z,52.90
2019-05-02T11:16:05.233Z,50.87
2019-05-02T11:18:47.975Z,60.97
2019-05-02T11:21:15.147Z,52.07
2019-05-02T11:23:42.392Z,51.73
2019-05-02T11:26:14.490Z,54.33
2019-05-02T11:28:39.076Z,53.33
2019-05-02T11:31:07.534Z,56.57
2019-05-02T11:33:35.366Z,45.93
2019-05-02T11:36:02.666Z,49.57
2019-05-02T11:38:30.457Z,50.33
2019-05-02T11:40:57.881Z,51.27
2019-05-02T11:43:25.104Z,44.80
2019-05-02T11:45:55.797Z,54.67
2019-05-02T11:48:22.626Z,47.70
2019-05-02T11:50:52.105Z,56.43
2019-05-02T11:53:29.388Z,44.70
2019-05-02T11:55:48.107Z,42.27
2019-05-02T11:58:15.309Z,45.20
2019-05-02T12:00:48.041Z,35.30
2019-05-02T12:03:36.839Z,41.30
2019-05-02T12:06:06.692Z,44.10
2019-05-02T12:08:33.252Z,46.40
2019-05-02T12:11:01.970Z,41.40
2019-05-02T12:13:29.868Z,50.10
2019-05-02T12:15:57.110Z,45.60
2019-05-02T12:18:24.335Z,38.13
2019-05-02T12:20:52.158Z,41.80
2019-05-02T12:23:19.440Z,38.77
2019-05-02T12:25:46.660Z,37.97
2019-05-02T12:28:13.968Z,43.90
2019-05-02T12:30:41.852Z,49.07
2019-05-02T12:33:09.538Z,56.57
2019-05-02T12:35:36.976Z,38.57
2019-05-02T12:38:04.271Z,37.20
2019-05-02T12:40:32.568Z,36.73
2019-05-02T12:42:59.821Z,39.10
2019-05-02T12:45:27.354Z,38.53
2019-05-02T12:47:54.470Z,31.27
2019-05-02T12:50:22.580Z,38.60
2019-05-02T12:52:52.054Z,40.00
2019-05-02T12:55:19.484Z,56.47
2019-05-02T12:57:46.692Z,43.37
2019-05-02T13:00:14.999Z,33.00
2019-05-02T13:02:47.663Z,34.10
2019-05-02T13:05:14.717Z,38.73
2019-05-02T13:07:42.790Z,39.20
2019-05-02T13:10:13.241Z,30.63
2019-05-02T13:12:41.923Z,34.27
2019-05-02T13:15:09.326Z,67.20
2019-05-02T13:17:43.871Z,35.40
2019-05-02T13:20:08.604Z,29.53
2019-05-02T13:22:45.819Z,32.60
2019-05-02T13:25:15.223Z,25.70
2019-05-02T13:27:47.085Z,28.50
2019-05-02T13:30:22.975Z,28.70
2019-05-02T13:32:57.597Z,26.40
2019-05-02T13:35:34.236Z,26.10
2019-05-02T13:38:03.411Z,25.40
2019-05-02T13:40:41.653Z,26.30
2019-05-02T13:43:08.999Z,25.17
2019-05-02T13:45:55.035Z,22.67
2019-05-02T13:48:22.464Z,22.00
2019-05-02T13:50:49.535Z,36.87
2019-05-02T13:53:16.764Z,25.83
2019-05-02T13:55:50.024Z,30.23
2019-05-02T13:58:21.637Z,30.63
2019-05-02T14:00:47.776Z,34.07
2019-05-02T14:03:15.061Z,21.47
2019-05-02T14:05:50.715Z,23.63
2019-05-02T14:08:37.118Z,19.40
2019-05-02T14:11:22.443Z,26.03
2019-05-02T14:13:49.811Z,44.23
2019-05-02T14:16:17.304Z,23.50
2019-05-02T14:18:44.480Z,30.23
2019-05-02T14:21:12.631Z,47.73
2019-05-02T14:23:41.897Z,21.13
2019-05-02T14:26:09.195Z,20.47
2019-05-02T14:28:36.535Z,23.77
2019-05-02T14:31:04.076Z,19.27
2019-05-02T14:33:33.174Z,18.70
2019-05-02T14:36:01.792Z,20.57
2019-05-02T14:38:29.220Z,22.20
2019-05-02T14:41:16.067Z,19.60
2019-05-02T14:44:09.041Z,20.80
2019-05-02T14:46:39.371Z,20.63
2019-05-02T14:49:05.354Z,23.87
2019-05-02T14:51:34.822Z,51.40
2019-05-02T14:54:07.956Z,22.77
2019-05-02T14:56:45.919Z,24.80
2019-05-02T14:59:09.260Z,26.60
2019-05-02T15:01:35.922Z,25.40
2019-05-02T15:04:08.109Z,20.43
2019-05-02T15:06:33.691Z,19.93
2019-05-02T15:09:02.399Z,22.90
2019-05-02T15:11:32.730Z,37.23
2019-05-02T15:13:59.709Z,22.57
2019-05-02T15:16:39.683Z,22.97
2019-05-02T15:18:57.154Z,24.37
2019-05-02T15:21:27.412Z,26.97
2019-05-02T15:23:57.880Z,48.73
2019-05-02T15:26:26.470Z,24.93
2019-05-02T15:28:53.172Z,29.23
2019-05-02T15:31:31.659Z,23.60
2019-05-02T15:34:14.024Z,23.00
2019-05-02T15:36:42.263Z,23.50
2019-05-02T15:41:44.745Z,31.27
2019-05-02T15:44:09.728Z,24.43
2019-05-02T15:46:36.960Z,27.40
2019-05-02T15:49:05.845Z,24.80
2019-05-02T15:51:33.199Z,25.90
2019-05-02T15:54:08.126Z,27.80
2019-05-02T15:56:32.439Z,26.93
2019-05-02T15:59:03.403Z,25.00
2019-05-02T16:01:53.234Z,30.37
2019-05-02T16:04:25.627Z,29.70
2019-05-02T16:06:52.877Z,23.13
2019-05-02T16:09:21.629Z,31.10
2019-05-02T16:11:53.158Z,24.93
2019-05-02T16:14:18.427Z,25.00
2019-05-02T16:16:45.690Z,25.87
2019-05-02T16:19:14.701Z,23.90
2019-05-02T16:24:32.095Z,34.70
2019-05-02T16:27:11.678Z,25.47
2019-05-02T16:30:07.558Z,31.20
2019-05-02T16:35:41.988Z,27.20
2019-05-02T16:41:24.989Z,24.30
2019-05-02T16:44:32.995Z,22.80
2019-05-02T16:47:14.002Z,26.30
2019-05-02T16:53:17.260Z,25.33
2019-05-02T16:58:58.175Z,24.17
2019-05-02T17:04:33.648Z,21.57
2019-05-02T17:10:22.976Z,22.70
2019-05-02T17:12:55.611Z,24.83
2019-05-02T17:15:45.058Z,21.70
2019-05-02T17:18:14.641Z,19.03
2019-05-02T17:20:53.579Z,17.07
2019-05-02T17:23:26.047Z,17.73
2019-05-02T17:29:41.513Z,18.20
2019-05-02T17:32:11.476Z,19.53
2019-05-02T17:34:45.188Z,17.93
2019-05-02T17:37:32.539Z,15.93
2019-05-02T17:43:22.702Z,16.10
2019-05-02T17:45:57.425Z,14.40
2019-05-02T17:48:26.429Z,15.90
2019-05-02T17:51:13.084Z,13.67
2019-05-02T17:54:22.811Z,12.83
2019-05-02T18:00:47.378Z,11.63
2019-05-02T18:03:24.279Z,11.33
2019-05-02T18:05:56.635Z,12.13
2019-05-02T18:08:23.733Z,13.13
2019-05-02T18:11:36.487Z,11.40
2019-05-02T18:17:29.170Z,8.83
2019-05-02T18:20:47.545Z,10.73
2019-05-02T18:23:34.250Z,12.50
2019-05-02T18:26:04.494Z,9.90
2019-05-02T18:28:47.032Z,12.03
2019-05-02T18:31:15.114Z,9.07
2019-05-02T18:36:43.893Z,12.53
2019-05-02T18:39:12.883Z,10.17
2019-05-02T18:41:51.907Z,11.90
2019-05-02T18:44:28.904Z,17.83
2019-05-02T18:46:57.758Z,11.37
2019-05-02T18:49:45.035Z,15.93
2019-05-02T18:52:12.243Z,16.63
2019-05-02T18:54:43.988Z,14.73
2019-05-02T18:57:24.402Z,14.43
2019-05-02T18:59:59.395Z,13.57
2019-05-02T19:02:34.082Z,19.60
2019-05-02T19:14:52.807Z,21.93
2019-05-02T19:17:21.831Z,18.33
2019-05-02T19:20:36.850Z,19.30
2019-05-02T19:23:04.079Z,25.93
2019-05-02T19:26:15.016Z,23.73
2019-05-02T19:29:08.517Z,20.90
2019-05-02T19:31:52.809Z,22.17
2019-05-02T19:34:22.770Z,26.50
2019-05-02T19:37:50.451Z,39.53
2019-05-02T19:43:40.254Z,27.40
2019-05-02T19:46:53.944Z,31.53
2019-05-02T19:49:22.109Z,23.33
2019-05-02T19:52:10.229Z,20.17
2019-05-02T19:54:39.947Z,19.13
2019-05-02T19:57:26.898Z,22.23
2019-05-02T19:59:57.124Z,21.60
2019-05-02T20:02:43.815Z,19.90
2019-05-02T20:05:25.523Z,14.90
2019-05-02T20:08:42.189Z,17.40
2019-05-02T20:11:32.911Z,13.50
2019-05-02T20:14:18.136Z,12.10
2019-05-02T20:22:48.434Z,12.73
2019-05-02T20:25:56.611Z,12.13
2019-05-02T20:28:24.085Z,10.43
2019-05-02T20:30:52.668Z,11.17
2019-05-02T20:33:27.362Z,9.60
2019-05-02T20:39:09.077Z,11.80
2019-05-02T20:41:38.108Z,7.53
2019-05-02T20:44:17.715Z,8.77
2019-05-02T20:46:45.008Z,6.80
2019-05-02T20:49:12.803Z,8.73
2019-05-02T20:52:02.463Z,10.47
2019-05-02T20:54:36.582Z,6.60
2019-05-02T21:00:32.187Z,7.73
2019-05-02T21:03:25.544Z,10.30
2019-05-02T21:06:12.509Z,12.07
2019-05-02T21:14:56.084Z,9.30
2019-05-02T21:17:23.334Z,11.50
2019-05-02T21:22:53.009Z,9.20
2019-05-02T21:25:41.778Z,11.30
2019-05-02T21:28:32.915Z,9.50
2019-05-02T21:34:33.670Z,14.20
2019-05-02T21:37:02.504Z,16.27
2019-05-02T21:39:36.278Z,14.20
2019-05-02T21:42:10.478Z,12.67
2019-05-02T21:44:37.815Z,11.43
2019-05-02T21:47:05.823Z,11.17
2019-05-02T21:52:46.605Z,12.50
2019-05-02T22:07:57.846Z,12.27
2019-05-02T22:10:25.090Z,12.30
2019-05-02T22:13:04.423Z,10.77
2019-05-02T22:15:32.479Z,13.67
2019-05-02T22:20:47.134Z,11.70
2019-05-02T22:26:15.409Z,11.43
2019-05-02T22:28:42.487Z,12.60
2019-05-02T22:31:12.162Z,12.10
2019-05-02T22:33:59.007Z,9.67
2019-05-02T22:36:26.246Z,10.90
2019-05-02T22:39:36.063Z,16.90
2019-05-02T22:48:17.897Z,8.07
2019-05-02T22:53:46.558Z,8.43
2019-05-02T22:56:25.809Z,9.17
2019-05-02T23:01:54.224Z,9.30
2019-05-02T23:04:23.311Z,9.23
2019-05-02T23:06:56.503Z,11.03
2019-05-02T23:09:23.696Z,8.73
2019-05-02T23:11:53.067Z,8.97
2019-05-02T23:15:01.999Z,8.40
2019-05-02T23:17:52.170Z,10.60
2019-05-02T23:21:21.753Z,10.77
2019-05-02T23:27:11.678Z,10.47
2019-05-02T23:29:46.415Z,13.23
2019-05-02T23:35:18.749Z,10.20
2019-05-02T23:37:45.966Z,12.60
2019-05-02T23:43:14.628Z,13.30
2019-05-02T23:45:42.303Z,15.40
2019-05-02T23:49:02.174Z,13.20
2019-05-02T23:51:42.619Z,13.27
2019-05-02T23:54:16.202Z,14.80
2019-05-02T23:56:43.423Z,14.67
2019-05-02T23:59:12.457Z,14.83
